Fort Spring, West Virginia
Current Conditions -  °F | °C
As of 11:35 AM on Thursday 23 Oct 2014 (Local Time) from KLWB Reporting Station
Overcast Overcast  
Wind Chill: 45°   Ceiling: 2200
Heat Index: 49°   Visibility: 10mi
Dew Point: 38°   Wind: 9mph
Humidity: 67%   Direction: 320°NW
Pressure: 30.13"   Gusts: NA
Location:  37.74°N, 80.54°W
Report Text: KLWB 231535Z AUTO 32008KT 290V350 10SM OVC022 10/04 A3013 RMK AO2 T00950036
Loading
Personal Weather Stations






























Interactive Weather Map New forecast layout! Learn more

10-Day Weather Forecast

Advertisements
Track Severe Weather on mobile